createdAt,value
2018-04-23T00:02:08.317Z,10.43
2018-04-23T00:04:34.974Z,10.57
2018-04-23T00:07:00.829Z,11.13
2018-04-23T00:09:26.664Z,10.30
2018-04-23T00:11:52.512Z,12.40
2018-04-23T00:14:18.372Z,11.57
2018-04-23T00:16:44.225Z,10.60
2018-04-23T00:19:10.085Z,10.37
2018-04-23T00:21:35.924Z,10.07
2018-04-23T00:24:01.800Z,10.03
2018-04-23T00:26:27.668Z,11.97
2018-04-23T00:28:53.525Z,10.80
2018-04-23T00:31:19.376Z,12.20
2018-04-23T00:33:45.219Z,11.90
2018-04-23T00:36:11.899Z,11.87
2018-04-23T00:38:37.738Z,11.67
2018-04-23T00:41:03.632Z,11.43
2018-04-23T00:43:29.485Z,13.30
2018-04-23T00:45:55.355Z,12.17
2018-04-23T00:48:21.213Z,12.60
2018-04-23T00:50:47.084Z,14.97
2018-04-23T00:53:25.480Z,13.27
2018-04-23T00:55:51.317Z,11.63
2018-04-23T00:58:17.208Z,12.37
2018-04-23T01:00:43.057Z,12.20
2018-04-23T01:03:08.945Z,12.10
2018-04-23T01:05:34.801Z,13.13
2018-04-23T01:08:00.666Z,13.30
2018-04-23T01:10:26.544Z,13.50
2018-04-23T01:12:52.427Z,13.23
2018-04-23T01:15:18.331Z,12.63
2018-04-23T01:17:44.201Z,13.83
2018-04-23T01:20:10.097Z,14.27
2018-04-23T01:22:35.932Z,14.90
2018-04-23T01:25:01.790Z,13.83
2018-04-23T01:27:27.645Z,12.97
2018-04-23T01:29:53.495Z,13.87
2018-04-23T01:32:19.352Z,12.57
2018-04-23T01:34:45.174Z,13.03
2018-04-23T01:37:11.867Z,12.73
2018-04-23T01:39:37.702Z,13.60
2018-04-23T01:42:03.572Z,13.00
2018-04-23T01:44:29.453Z,13.80
2018-04-23T01:46:55.301Z,13.90
2018-04-23T01:49:21.161Z,13.23
2018-04-23T01:51:47.497Z,13.70
2018-04-23T01:54:13.357Z,13.90
2018-04-23T01:56:39.229Z,14.57
2018-04-23T01:59:05.102Z,14.17
2018-04-23T02:01:30.952Z,12.83
2018-04-23T02:03:57.529Z,14.07
2018-04-23T02:06:23.388Z,12.57
2018-04-23T02:08:49.243Z,13.33
2018-04-23T02:11:15.117Z,13.10
2018-04-23T02:13:40.962Z,12.50
2018-04-23T02:16:06.869Z,13.30
2018-04-23T02:18:32.708Z,13.57
2018-04-23T02:20:58.552Z,13.13
2018-04-23T02:23:24.449Z,13.20
2018-04-23T02:25:50.319Z,14.60
2018-04-23T02:28:16.195Z,14.13
2018-04-23T02:30:42.055Z,14.03
2018-04-23T02:33:07.908Z,14.63
2018-04-23T02:35:33.813Z,13.80
2018-04-23T02:37:59.662Z,13.47
2018-04-23T02:40:25.949Z,13.23
2018-04-23T02:42:52.206Z,13.00
2018-04-23T02:45:18.072Z,13.87
2018-04-23T02:47:43.950Z,14.90
2018-04-23T02:50:09.869Z,16.60
2018-04-23T02:52:35.732Z,14.23
2018-04-23T02:55:01.640Z,14.83
2018-04-23T02:57:27.494Z,13.70
2018-04-23T02:59:53.373Z,13.80
2018-04-23T03:02:19.247Z,14.87
2018-04-23T03:04:45.129Z,13.80
2018-04-23T03:07:11.009Z,14.37
2018-04-23T03:09:36.896Z,15.53
2018-04-23T03:12:02.790Z,14.27
2018-04-23T03:14:28.625Z,16.07
2018-04-23T03:16:54.481Z,13.83
2018-04-23T03:19:20.359Z,14.27
2018-04-23T03:21:46.231Z,14.07
2018-04-23T03:24:12.109Z,12.80
2018-04-23T03:26:37.964Z,12.77
2018-04-23T03:29:03.813Z,14.17
2018-04-23T03:31:29.636Z,13.40
2018-04-23T03:33:55.487Z,12.70
2018-04-23T03:36:21.322Z,14.00
2018-04-23T03:38:47.219Z,12.33
2018-04-23T03:41:13.081Z,15.13
2018-04-23T03:43:38.953Z,13.43
2018-04-23T03:46:04.812Z,15.67
2018-04-23T03:48:30.722Z,13.47
2018-04-23T03:50:56.584Z,19.97
2018-04-23T03:53:22.442Z,16.60
2018-04-23T03:55:48.580Z,18.80
2018-04-23T03:58:14.457Z,19.47
2018-04-23T04:00:40.307Z,16.67
2018-04-23T04:03:06.155Z,16.53
2018-04-23T04:05:32.036Z,18.27
2018-04-23T04:07:57.904Z,18.43
2018-04-23T04:10:23.858Z,18.63
2018-04-23T04:16:05.995Z,15.67
2018-04-23T04:18:44.103Z,16.63
2018-04-23T04:21:09.974Z,16.90
2018-04-23T04:23:35.845Z,14.60
2018-04-23T04:26:01.694Z,15.80
2018-04-23T04:28:27.567Z,14.13
2018-04-23T04:30:53.460Z,13.43
2018-04-23T04:33:19.310Z,14.53
2018-04-23T04:35:45.210Z,14.23
2018-04-23T04:38:11.004Z,15.70
2018-04-23T04:40:36.825Z,16.43
2018-04-23T04:43:02.734Z,13.63
2018-04-23T04:45:28.869Z,13.10
2018-04-23T04:47:54.773Z,14.50
2018-04-23T04:50:20.717Z,14.73
2018-04-23T04:52:46.680Z,15.53
2018-04-23T04:55:12.550Z,15.30
2018-04-23T04:57:38.517Z,14.53
2018-04-23T05:00:04.750Z,14.27
2018-04-23T05:02:30.705Z,14.80
2018-04-23T05:04:56.554Z,14.50
2018-04-23T05:07:22.400Z,16.13
2018-04-23T05:09:48.251Z,15.20
2018-04-23T05:12:14.117Z,16.17
2018-04-23T05:14:39.960Z,16.77
2018-04-23T05:17:05.781Z,14.77
2018-04-23T05:29:16.642Z,13.70
2018-04-23T05:31:42.474Z,15.23
2018-04-23T05:34:08.333Z,16.17
2018-04-23T05:36:34.211Z,13.37
2018-04-23T05:39:00.076Z,14.83
2018-04-23T05:41:25.949Z,14.73
2018-04-23T05:43:51.837Z,13.97
2018-04-23T05:46:18.534Z,15.13
2018-04-23T05:48:44.413Z,16.23
2018-04-23T05:51:10.245Z,14.63
2018-04-23T05:53:36.119Z,15.67
2018-04-23T05:56:01.990Z,14.60
2018-04-23T05:58:27.863Z,15.20
2018-04-23T06:00:53.721Z,14.17
2018-04-23T06:03:19.605Z,14.50
2018-04-23T06:05:45.468Z,14.83
2018-04-23T06:08:11.337Z,14.50
2018-04-23T06:10:37.207Z,15.27
2018-04-23T06:13:03.053Z,16.17
2018-04-23T06:15:28.920Z,15.00
2018-04-23T06:17:54.774Z,14.97
2018-04-23T06:20:21.016Z,14.63
2018-04-23T06:22:46.868Z,15.77
2018-04-23T06:25:12.695Z,15.57
2018-04-23T06:27:38.537Z,15.43
2018-04-23T06:30:04.645Z,16.07
2018-04-23T06:32:30.511Z,15.30
2018-04-23T06:34:56.379Z,14.10
2018-04-23T06:37:22.232Z,15.17
2018-04-23T06:39:48.961Z,14.80
2018-04-23T06:42:14.813Z,15.70
2018-04-23T06:44:40.663Z,14.23
2018-04-23T06:47:06.574Z,14.70
2018-04-23T06:49:32.448Z,14.53
2018-04-23T06:51:58.291Z,15.47
2018-04-23T06:54:24.146Z,16.00
2018-04-23T06:56:49.992Z,17.33
2018-04-23T06:59:15.856Z,18.50
2018-04-23T07:01:41.717Z,18.00
2018-04-23T07:04:07.587Z,17.63
2018-04-23T07:06:33.449Z,16.40
2018-04-23T07:08:59.270Z,15.83
2018-04-23T07:11:25.148Z,14.20
2018-04-23T07:13:50.981Z,17.43
2018-04-23T07:16:16.862Z,15.60
2018-04-23T07:18:42.728Z,14.90
2018-04-23T07:21:08.600Z,15.00
2018-04-23T07:23:34.489Z,14.70
2018-04-23T07:26:00.408Z,15.37
2018-04-23T07:28:26.306Z,15.03
2018-04-23T07:30:52.200Z,11.27
2018-04-23T07:33:18.089Z,11.90
2018-04-23T07:35:43.960Z,8.67
2018-04-23T07:38:09.816Z,7.93
2018-04-23T07:40:35.639Z,7.20
2018-04-23T07:43:01.474Z,6.93
2018-04-23T07:45:27.332Z,6.23
2018-04-23T07:47:53.234Z,7.03
2018-04-23T07:50:19.028Z,6.60
2018-04-23T07:52:44.912Z,6.40
2018-04-23T07:55:10.800Z,6.30
2018-04-23T07:57:36.708Z,6.23
2018-04-23T08:00:03.429Z,6.27
2018-04-23T08:02:29.270Z,5.43
2018-04-23T08:04:55.105Z,6.47
2018-04-23T08:07:20.981Z,6.33
2018-04-23T08:09:47.553Z,6.67
2018-04-23T08:12:14.180Z,5.57
2018-04-23T08:14:39.993Z,6.50
2018-04-23T08:17:06.749Z,5.40
2018-04-23T08:19:33.494Z,5.80
2018-04-23T08:21:59.360Z,6.10
2018-04-23T08:24:25.270Z,6.47
2018-04-23T08:26:51.156Z,6.10
2018-04-23T08:29:17.016Z,6.10
2018-04-23T08:31:42.868Z,6.30
2018-04-23T08:34:08.740Z,7.33
2018-04-23T08:36:34.616Z,6.37
2018-04-23T08:39:00.450Z,7.47
2018-04-23T08:41:26.334Z,5.60
2018-04-23T08:43:52.230Z,5.30
2018-04-23T08:46:18.076Z,6.13
2018-04-23T08:48:43.911Z,5.70
2018-04-23T08:51:09.769Z,5.40
2018-04-23T08:53:35.593Z,5.77
2018-04-23T08:56:01.527Z,6.47
2018-04-23T08:58:27.425Z,6.57
2018-04-23T09:00:53.324Z,5.67
2018-04-23T09:03:19.220Z,5.80
2018-04-23T09:05:45.756Z,7.73
2018-04-23T09:08:11.613Z,5.77
2018-04-23T09:10:37.459Z,6.17
2018-04-23T09:13:03.281Z,5.60
2018-04-23T09:15:29.117Z,6.37
2018-04-23T09:17:55.005Z,6.00
2018-04-23T09:20:20.817Z,5.60
2018-04-23T09:22:46.657Z,6.60
2018-04-23T09:25:12.515Z,7.60
2018-04-23T09:27:38.371Z,6.73
2018-04-23T09:30:04.247Z,6.67
2018-04-23T09:32:31.048Z,6.27
2018-04-23T09:34:56.933Z,6.13
2018-04-23T09:37:23.634Z,6.30
2018-04-23T09:39:49.454Z,6.27
2018-04-23T09:42:15.324Z,6.40
2018-04-23T09:44:41.244Z,5.70
2018-04-23T09:47:07.106Z,7.17
2018-04-23T09:49:32.978Z,6.53
2018-04-23T09:51:58.833Z,5.83
2018-04-23T09:54:24.696Z,5.90
2018-04-23T09:56:50.541Z,6.37
2018-04-23T09:59:16.482Z,5.80
2018-04-23T10:01:48.565Z,6.30
2018-04-23T10:04:20.200Z,7.27
2018-04-23T10:06:46.046Z,7.07
2018-04-23T10:09:11.869Z,7.37
2018-04-23T10:11:37.741Z,7.03
2018-04-23T10:14:03.597Z,7.23
2018-04-23T10:16:29.490Z,5.77
2018-04-23T10:18:55.328Z,6.63
2018-04-23T10:21:21.185Z,7.27
2018-04-23T10:23:47.021Z,5.47
2018-04-23T10:26:12.897Z,5.80
2018-04-23T10:28:38.777Z,4.70
2018-04-23T10:31:04.671Z,7.10
2018-04-23T10:33:30.534Z,6.90
2018-04-23T10:35:56.405Z,5.60
2018-04-23T10:38:22.278Z,4.93
2018-04-23T10:40:48.141Z,3.73
2018-04-23T10:43:14.622Z,3.93
2018-04-23T10:45:40.501Z,4.27
2018-04-23T10:48:06.360Z,3.93
2018-04-23T10:50:32.210Z,4.37
2018-04-23T10:52:58.064Z,4.10
2018-04-23T10:55:23.911Z,5.07
2018-04-23T10:57:49.762Z,4.70
2018-04-23T11:00:15.613Z,5.43
2018-04-23T11:02:41.448Z,4.40
2018-04-23T11:05:07.309Z,4.90
2018-04-23T11:07:33.148Z,4.73
2018-04-23T11:09:59.024Z,6.20
2018-04-23T11:12:24.855Z,5.90
2018-04-23T11:14:50.744Z,5.47
2018-04-23T11:17:16.617Z,5.73
2018-04-23T11:19:42.465Z,6.33
2018-04-23T11:22:08.328Z,6.00
2018-04-23T11:24:34.205Z,4.80
2018-04-23T11:27:00.096Z,4.40
2018-04-23T11:29:26.877Z,5.83
2018-04-23T11:31:52.705Z,5.17
2018-04-23T11:34:18.596Z,4.70
2018-04-23T11:36:44.476Z,5.97
2018-04-23T11:39:10.340Z,4.77
2018-04-23T11:41:36.202Z,5.37
2018-04-23T11:44:02.075Z,5.60
2018-04-23T11:46:28.310Z,5.53
2018-04-23T11:48:54.190Z,5.70
2018-04-23T11:51:20.046Z,7.00
2018-04-23T11:53:45.899Z,5.60
2018-04-23T11:56:11.792Z,5.90
2018-04-23T11:58:43.862Z,5.20
2018-04-23T12:01:16.014Z,5.90
2018-04-23T12:03:41.879Z,7.07
2018-04-23T12:06:07.788Z,5.17
2018-04-23T12:08:33.614Z,5.23
2018-04-23T12:10:59.490Z,5.70
2018-04-23T12:13:25.334Z,5.80
2018-04-23T12:15:51.173Z,5.40
2018-04-23T12:18:17.009Z,5.33
2018-04-23T12:20:42.833Z,5.73
2018-04-23T12:23:08.693Z,5.00
2018-04-23T12:25:34.609Z,6.03
2018-04-23T12:28:00.520Z,5.13
2018-04-23T12:30:26.444Z,6.23
2018-04-23T12:32:52.337Z,4.60
2018-04-23T12:35:18.203Z,4.57
2018-04-23T12:37:44.060Z,5.23
2018-04-23T12:40:09.897Z,5.30
2018-04-23T12:42:35.770Z,5.63
2018-04-23T12:45:01.632Z,5.70
2018-04-23T12:47:27.481Z,5.10
2018-04-23T12:49:53.320Z,5.07
2018-04-23T12:52:19.170Z,6.13
2018-04-23T12:54:45.034Z,5.30
2018-04-23T12:57:11.017Z,4.70
2018-04-23T12:59:36.852Z,5.37
2018-04-23T13:02:02.703Z,5.90
2018-04-23T13:04:28.593Z,5.20
2018-04-23T13:06:54.428Z,4.70
2018-04-23T13:09:20.301Z,4.50
2018-04-23T13:11:46.164Z,4.00
2018-04-23T13:14:12.057Z,4.20
2018-04-23T13:16:37.953Z,4.83
2018-04-23T13:19:03.807Z,5.73
2018-04-23T13:21:29.683Z,5.10
2018-04-23T13:23:55.545Z,4.47
2018-04-23T13:26:21.421Z,4.60
2018-04-23T13:28:47.249Z,3.90
2018-04-23T13:31:13.085Z,4.60
2018-04-23T13:33:38.941Z,4.83
2018-04-23T13:36:04.805Z,4.33
2018-04-23T13:38:30.660Z,3.60
2018-04-23T13:40:56.517Z,3.47
2018-04-23T13:43:22.360Z,4.13
2018-04-23T13:45:48.221Z,4.50
2018-04-23T13:48:14.066Z,5.00
2018-04-23T13:50:40.894Z,3.80
2018-04-23T13:53:06.743Z,4.10
2018-04-23T13:55:32.589Z,4.10
2018-04-23T13:57:58.464Z,5.13
2018-04-23T14:00:24.321Z,4.47
2018-04-23T14:02:50.185Z,5.20
2018-04-23T14:05:16.035Z,4.30
2018-04-23T14:07:41.887Z,3.20
2018-04-23T14:10:07.744Z,4.57
2018-04-23T14:12:34.567Z,4.53
2018-04-23T14:15:00.454Z,5.40
2018-04-23T14:17:26.285Z,5.10
2018-04-23T14:19:52.117Z,4.13
2018-04-23T14:22:17.966Z,3.80
2018-04-23T14:24:43.804Z,4.17
2018-04-23T14:27:09.664Z,4.10
2018-04-23T14:29:35.535Z,4.47
2018-04-23T14:32:01.380Z,4.20
2018-04-23T14:34:27.209Z,4.03
2018-04-23T14:36:53.085Z,4.20
2018-04-23T14:39:20.251Z,6.17
2018-04-23T14:41:46.200Z,4.27
2018-04-23T14:44:12.236Z,5.07
2018-04-23T14:46:38.090Z,7.73
2018-04-23T14:49:03.945Z,6.93
2018-04-23T14:51:29.767Z,4.67
2018-04-23T14:53:55.621Z,5.10
2018-04-23T14:56:21.462Z,5.40
2018-04-23T14:58:47.321Z,4.40
2018-04-23T15:01:13.285Z,5.70
2018-04-23T15:03:39.122Z,4.23
2018-04-23T15:06:05.802Z,5.53
2018-04-23T15:08:31.664Z,4.90
2018-04-23T15:10:57.540Z,5.17
2018-04-23T15:13:23.432Z,5.57
2018-04-23T15:15:49.311Z,4.80
2018-04-23T15:18:15.174Z,4.20
2018-04-23T15:20:41.053Z,5.07
2018-04-23T15:23:06.917Z,4.30
2018-04-23T15:25:32.781Z,5.97
2018-04-23T15:27:58.771Z,5.50
2018-04-23T15:30:24.606Z,4.83
2018-04-23T15:32:50.460Z,5.57
2018-04-23T15:35:16.337Z,4.40
2018-04-23T15:37:42.197Z,5.23
2018-04-23T15:40:08.101Z,6.90
2018-04-23T15:42:34.011Z,5.00
2018-04-23T15:45:00.015Z,5.90
2018-04-23T15:47:25.889Z,5.30
2018-04-23T15:49:51.760Z,4.80
2018-04-23T15:52:17.694Z,4.83
2018-04-23T15:54:43.549Z,5.30
2018-04-23T15:57:09.381Z,5.23
2018-04-23T15:59:35.249Z,5.77
2018-04-23T16:02:01.129Z,5.23
2018-04-23T16:04:27.011Z,6.07
2018-04-23T16:06:52.889Z,5.57
2018-04-23T16:09:18.796Z,5.60
2018-04-23T16:11:44.648Z,5.07
2018-04-23T16:14:10.556Z,5.80
2018-04-23T16:16:36.449Z,5.20
2018-04-23T16:19:02.329Z,4.93
2018-04-23T16:21:28.167Z,6.50
2018-04-23T16:23:54.041Z,5.40
2018-04-23T16:26:19.880Z,5.77
2018-04-23T16:28:45.705Z,5.83
2018-04-23T16:31:11.582Z,7.73
2018-04-23T16:33:37.466Z,5.73
2018-04-23T16:36:03.326Z,6.90
2018-04-23T16:38:29.194Z,5.80
2018-04-23T16:40:55.093Z,5.27
2018-04-23T16:43:20.948Z,7.40
2018-04-23T16:45:46.818Z,6.20
2018-04-23T16:48:12.686Z,5.83
2018-04-23T16:50:38.572Z,5.90
2018-04-23T16:53:04.417Z,6.17
2018-04-23T16:55:30.289Z,6.50
2018-04-23T16:57:56.196Z,5.70
2018-04-23T17:00:22.062Z,6.70
2018-04-23T17:02:47.978Z,6.33
2018-04-23T17:05:13.815Z,5.20
2018-04-23T17:07:39.719Z,7.07
2018-04-23T17:10:05.654Z,6.47
2018-04-23T17:12:31.515Z,7.23
2018-04-23T17:14:57.397Z,6.80
2018-04-23T17:17:23.274Z,6.07
2018-04-23T17:19:49.172Z,7.30
2018-04-23T17:22:15.028Z,6.93
2018-04-23T17:24:40.903Z,6.53
2018-04-23T17:27:06.728Z,7.33
2018-04-23T17:29:32.609Z,5.80
2018-04-23T17:31:58.474Z,6.43
2018-04-23T17:34:24.343Z,5.87
2018-04-23T17:36:50.185Z,5.60
2018-04-23T17:39:16.472Z,7.10
2018-04-23T17:41:42.656Z,6.63
2018-04-23T17:44:08.513Z,6.20
2018-04-23T17:46:34.367Z,7.00
2018-04-23T17:49:00.202Z,6.17
2018-04-23T17:51:26.076Z,6.93
2018-04-23T17:53:52.030Z,6.00
2018-04-23T17:56:17.901Z,5.60
2018-04-23T17:58:44.580Z,4.87
2018-04-23T18:01:10.430Z,4.30
2018-04-23T18:03:36.294Z,4.53
2018-04-23T18:06:02.144Z,4.20
2018-04-23T18:08:28.001Z,5.30
2018-04-23T18:10:53.871Z,4.40
2018-04-23T18:13:19.729Z,5.00
2018-04-23T18:15:45.562Z,4.03
2018-04-23T18:18:11.454Z,4.93
2018-04-23T18:20:37.289Z,4.60
2018-04-23T18:23:03.146Z,4.77
2018-04-23T18:25:29.024Z,4.70
2018-04-23T18:27:54.881Z,6.03
2018-04-23T18:30:20.748Z,5.03
2018-04-23T18:32:46.585Z,3.93
2018-04-23T18:35:12.480Z,4.47
2018-04-23T18:37:38.315Z,3.40
2018-04-23T18:40:04.425Z,3.83
2018-04-23T18:42:30.296Z,3.90
2018-04-23T18:44:56.179Z,3.60
2018-04-23T18:47:22.078Z,4.20
2018-04-23T18:49:47.943Z,3.90
2018-04-23T18:52:13.814Z,3.60
2018-04-23T18:54:39.725Z,4.37
2018-04-23T18:57:05.669Z,4.40
2018-04-23T18:59:31.532Z,4.50
2018-04-23T19:01:57.453Z,4.30
2018-04-23T19:04:23.320Z,4.23
2018-04-23T19:06:49.233Z,4.53
2018-04-23T19:09:15.217Z,4.00
2018-04-23T19:11:41.166Z,4.40
2018-04-23T19:14:07.261Z,4.40
2018-04-23T19:16:33.251Z,5.47
2018-04-23T19:18:59.109Z,4.00
2018-04-23T19:21:24.984Z,5.80
2018-04-23T19:23:50.990Z,4.87
2018-04-23T19:26:17.140Z,4.50
2018-04-23T19:28:43.010Z,5.23
2018-04-23T19:31:08.905Z,5.17
2018-04-23T19:33:34.774Z,5.10
2018-04-23T19:36:00.806Z,4.37
2018-04-23T19:38:26.593Z,4.00
2018-04-23T19:40:52.466Z,7.20
2018-04-23T19:43:18.375Z,7.70
2018-04-23T19:45:44.250Z,9.60
2018-04-23T19:48:10.173Z,8.67
2018-04-23T19:50:36.100Z,10.93
2018-04-23T19:53:01.971Z,10.90
2018-04-23T19:55:27.837Z,11.33
2018-04-23T19:57:53.720Z,11.73
2018-04-23T20:00:19.581Z,7.57
2018-04-23T20:02:45.448Z,10.87
2018-04-23T20:05:11.357Z,9.43
2018-04-23T20:07:37.247Z,9.10
2018-04-23T20:10:03.246Z,8.70
2018-04-23T20:12:29.165Z,9.10
2018-04-23T20:14:55.045Z,8.17
2018-04-23T20:17:20.911Z,7.90
2018-04-23T20:19:46.808Z,7.00
2018-04-23T20:22:12.699Z,7.50
2018-04-23T20:24:38.565Z,6.83
2018-04-23T20:27:04.429Z,6.33
2018-04-23T20:29:30.303Z,5.87
2018-04-23T20:31:56.166Z,5.90
2018-04-23T20:34:22.089Z,5.60
2018-04-23T20:36:47.936Z,6.20
2018-04-23T20:39:13.832Z,5.80
2018-04-23T20:41:39.672Z,5.80
2018-04-23T20:44:05.545Z,5.07
2018-04-23T20:46:31.413Z,5.20
2018-04-23T20:48:57.285Z,5.33
2018-04-23T20:51:23.158Z,4.80
2018-04-23T20:53:49.037Z,6.10
2018-04-23T20:56:14.895Z,5.70
2018-04-23T20:58:40.764Z,6.00
2018-04-23T21:01:06.614Z,5.37
2018-04-23T21:03:39.382Z,5.03
2018-04-23T21:06:05.241Z,6.47
2018-04-23T21:08:31.088Z,6.13
2018-04-23T21:11:04.010Z,6.10
2018-04-23T21:13:29.907Z,5.53
2018-04-23T21:15:55.779Z,6.37
2018-04-23T21:18:21.641Z,5.27
2018-04-23T21:20:47.529Z,5.27
2018-04-23T21:23:13.447Z,6.00
2018-04-23T21:25:39.336Z,6.00
2018-04-23T21:28:05.241Z,6.20
2018-04-23T21:30:31.085Z,6.17
2018-04-23T21:32:56.827Z,6.67
2018-04-23T21:35:22.668Z,5.90
2018-04-23T21:37:48.559Z,5.90
2018-04-23T21:40:14.398Z,6.23
2018-04-23T21:42:40.234Z,7.20
2018-04-23T21:45:06.105Z,7.47
2018-04-23T21:47:31.953Z,8.40
2018-04-23T21:49:57.817Z,6.27
2018-04-23T21:52:23.668Z,6.10
2018-04-23T21:54:49.548Z,6.20
2018-04-23T21:57:15.404Z,6.50
2018-04-23T21:59:41.279Z,6.27
2018-04-23T22:02:07.211Z,5.90
2018-04-23T22:04:33.093Z,6.93
2018-04-23T22:06:58.957Z,6.00
2018-04-23T22:09:24.811Z,5.80
2018-04-23T22:11:50.645Z,6.50
2018-04-23T22:14:16.540Z,7.37
2018-04-23T22:16:42.433Z,7.37
2018-04-23T22:19:08.301Z,6.27
2018-04-23T22:21:34.201Z,6.00
2018-04-23T22:24:00.038Z,7.73
2018-04-23T22:26:25.905Z,6.80
2018-04-23T22:28:51.758Z,7.10
2018-04-23T22:31:17.638Z,6.57
2018-04-23T22:33:43.461Z,6.57
2018-04-23T22:36:09.308Z,6.63
2018-04-23T22:38:35.194Z,7.53
2018-04-23T22:41:01.038Z,6.13
2018-04-23T22:43:26.905Z,6.80
2018-04-23T22:45:52.779Z,7.30
2018-04-23T22:48:18.600Z,5.90
2018-04-23T22:50:44.441Z,6.50
2018-04-23T22:53:10.301Z,5.73
2018-04-23T22:55:36.190Z,6.07
2018-04-23T22:58:02.049Z,6.40
2018-04-23T23:00:27.901Z,6.67
2018-04-23T23:02:53.762Z,6.30
2018-04-23T23:05:19.632Z,7.40
2018-04-23T23:07:45.507Z,8.23
2018-04-23T23:10:11.356Z,7.03
2018-04-23T23:12:37.240Z,6.93
2018-04-23T23:15:03.208Z,7.00
2018-04-23T23:17:29.028Z,6.90
2018-04-23T23:19:54.889Z,7.50
2018-04-23T23:22:20.743Z,7.00
2018-04-23T23:24:46.636Z,6.10
2018-04-23T23:27:12.479Z,7.37
2018-04-23T23:29:38.316Z,6.97
2018-04-23T23:32:04.191Z,7.37
2018-04-23T23:34:30.037Z,7.57
2018-04-23T23:36:55.881Z,7.70
2018-04-23T23:39:21.747Z,6.63
2018-04-23T23:41:47.636Z,7.00
2018-04-23T23:44:13.520Z,8.30
2018-04-23T23:46:39.422Z,8.30
2018-04-23T23:49:05.614Z,8.27
2018-04-23T23:51:31.488Z,7.53
2018-04-23T23:53:57.401Z,8.00
2018-04-23T23:56:23.244Z,8.43
2018-04-23T23:58:49.132Z,7.50
